Portada
METAR-TAF:

METAR-TAF

Aeroports :

Tirupati, Índia

latitud: 13-38-16N, longitud: 79-32-50E, altitud: 107 m

Observació

L'informe es va fer fa 28 minuts, a les 04:00 UTC
Vent 3 kt amb direcció variable
Temperatura 27°C
Humitat 79%
Pressió 1008 hPa
Visibilitat: 6000 m
Escasses núvols a una alçada de 2000 ft
Cel ennuvolat a una alçada de 10000 ft

METAR: VOTP 010400Z VRB03KT 6000 FEW020 BKN100 27/23 Q1008 NOSIG

Hora: 09:58 (04:28 UTC)

Pronòstic

L'informe es va fer fa 2 hores i 28 minuts, a les 02:00 UTC
Pronòstic vàlid del 01 a les 03 UTC al 01 a les 12 UTC
Vent 5 kt del Oest/Nord-Oest
Visibilitat: 5000 m
Núvols disperses a una alçada de 1500 ft
Núvols disperses a una alçada de 10000 ft
boirina, calitja
Evolucionant progressivament
l' 01 a les 04 UTC al 01 a les 06 UTC
Vent 10 kt del Oest
Visibilitat: 6000 m
Núvols disperses a una alçada de 1500 ft
Núvols disperses a una alçada de 2500 ft

TAF: VOTP 010200Z 0103/0112 30005KT 5000 BR HZ SCT015 SCT100 BECMG 0104/0106 26010KT 6000 SCT015 SCT025

Observacions i pronòstics meteorològics de més de 4000 aeroports (METAR i TAF).

Les estacions disponibles són els punts grocs i vermells al mapa.

Posi el ratolí al punt desitjat per veure el nom de l'estació.

Feu clic per veure les observacions i els pronòstics meteorològics.

Per canviar el mapa: feu clic els botons verds amb una creu de color negre per apropar; al botó verd amb un guió per allunyar la imatge; o en les fletxes verdes per a mapes adjacents.


METAR-TAF: